Time;durP1;ratioP1;P1;durP2;ratioP2;P2;SDS_P1;SDS_P2;PMS_P1;PMS_P2;Temp;Humidity;BMP_temperature;BMP_pressure;BME280_temperature;BME280_humidity;BME280_pressure;Samples;Min_cycle;Max_cycle;Signal;HPM_P1;HPM_P2
2021/09/29 00:00:06;;;;;;;6.07;5.33;;;;;;;14.02;74.74;101421.30;5084478;58;21195;-89
2021/09/29 00:05:16;;;;;;;8.60;5.17;;;;;;;13.99;74.87;101433.98;5085056;57;21215;-86
2021/09/29 00:10:22;;;;;;;9.47;4.70;;;;;;;13.96;74.77;101431.06;5084774;58;21793;-88
2021/09/29 00:15:28;;;;;;;10.13;4.83;;;;;;;13.91;74.73;101428.39;5084494;58;21144;-89
2021/09/29 00:20:34;;;;;;;7.80;5.40;;;;;;;13.84;75.04;101422.71;5084809;57;21239;-92
2021/09/29 00:25:40;;;;;;;12.40;5.43;;;;;;;13.79;75.12;101429.33;5082014;58;21569;-90
2021/09/29 00:32:09;;;;;;;7.20;5.00;;;;;;;13.71;75.43;101423.29;5082394;58;21193;-89
2021/09/29 00:36:00;;;;;;;7.37;5.00;;;;;;;13.69;75.40;101432.70;5025822;58;21529;-86
2021/09/29 00:41:06;;;;;;;10.60;5.33;;;;;;;13.61;75.46;101415.63;5082442;58;21213;-88
2021/09/29 00:46:13;;;;;;;9.80;5.07;;;;;;;13.67;75.58;101419.16;5081275;58;21190;-85
2021/09/29 00:51:19;;;;;;;10.63;5.00;;;;;;;13.62;75.77;101413.34;5082527;58;21257;-87
2021/09/29 00:56:24;;;;;;;7.07;4.80;;;;;;;13.59;75.67;101419.77;5080640;58;21150;-86
2021/09/29 01:01:31;;;;;;;9.80;5.60;;;;;;;13.52;75.63;101407.89;5080405;58;21210;-90
2021/09/29 01:06:48;;;;;;;9.80;5.27;;;;;;;13.45;75.73;101405.31;5080746;58;21170;-89
2021/09/29 01:12:19;;;;;;;10.27;5.63;;;;;;;13.38;75.75;101408.93;5080592;57;21444;-90
2021/09/29 01:17:25;;;;;;;10.50;6.63;;;;;;;13.32;75.99;101416.50;5080345;58;21198;-87
2021/09/29 01:22:56;;;;;;;9.40;5.57;;;;;;;13.17;76.18;101417.16;5080679;58;22600;-86
2021/09/29 01:28:03;;;;;;;9.17;5.43;;;;;;;13.15;76.21;101414.25;5080246;58;21254;-88
2021/09/29 01:33:09;;;;;;;8.57;6.70;;;;;;;13.08;76.07;101409.01;5080563;58;21625;-87
2021/09/29 01:38:16;;;;;;;11.60;5.23;;;;;;;12.96;76.26;101405.45;5080491;58;21530;-92
2021/09/29 01:43:22;;;;;;;9.20;6.47;;;;;;;12.84;76.39;101398.36;5080395;57;21186;-86
2021/09/29 01:48:28;;;;;;;11.90;6.23;;;;;;;12.74;76.62;101395.55;5149812;57;21190;-91
2021/09/29 01:53:35;;;;;;;13.23;6.30;;;;;;;12.61;76.86;101387.62;5155339;57;21205;-92
2021/09/29 01:58:41;;;;;;;12.53;6.80;;;;;;;12.53;76.92;101391.30;5155479;57;21211;-87
2021/09/29 02:03:47;;;;;;;7.37;6.07;;;;;;;12.44;77.20;101388.46;5155591;57;21182;-87
2021/09/29 02:08:53;;;;;;;13.47;6.40;;;;;;;12.32;77.29;101387.06;5155671;57;21218;-89
2021/09/29 02:13:59;;;;;;;12.87;6.87;;;;;;;12.27;77.53;101380.38;5155390;57;21130;-87
2021/09/29 02:19:05;;;;;;;8.00;5.87;;;;;;;12.18;78.37;101381.04;5155495;57;21210;-90
2021/09/29 02:24:12;;;;;;;13.23;7.03;;;;;;;12.11;78.16;101384.59;5155763;57;21131;-89
2021/09/29 02:29:18;;;;;;;12.53;6.17;;;;;;;12.02;78.58;101385.72;5155408;57;21187;-86
2021/09/29 02:34:24;;;;;;;12.40;6.77;;;;;;;11.98;78.54;101383.75;5155221;57;21201;-88
2021/09/29 02:39:30;;;;;;;9.30;6.63;;;;;;;11.95;78.53;101384.81;5155297;57;21224;-92
2021/09/29 02:44:36;;;;;;;10.20;6.43;;;;;;;11.90;78.88;101390.08;5156503;57;21217;-88
2021/09/29 02:49:42;;;;;;;12.90;6.50;;;;;;;11.84;78.85;101393.98;5151604;57;21159;-88
2021/09/29 02:54:48;;;;;;;11.93;5.87;;;;;;;11.82;78.94;101395.05;5084769;58;21196;-90
2021/09/29 02:59:54;;;;;;;13.93;7.00;;;;;;;11.74;79.21;101398.68;5085063;58;21515;-90
2021/09/29 03:05:00;;;;;;;10.00;6.50;;;;;;;11.66;79.40;101396.54;5084580;58;21180;-88
2021/09/29 03:10:07;;;;;;;8.87;6.13;;;;;;;11.59;79.74;101399.25;5084291;58;22489;-87
2021/09/29 03:15:14;;;;;;;11.67;7.30;;;;;;;11.57;79.75;101395.38;5084019;58;21182;-88
2021/09/29 03:20:20;;;;;;;12.03;6.93;;;;;;;11.55;79.81;101399.92;5084285;58;21218;-86
2021/09/29 03:25:27;;;;;;;12.57;8.10;;;;;;;11.51;80.23;101401.55;5084871;58;21183;-87
2021/09/29 03:30:33;;;;;;;9.37;6.37;;;;;;;11.40;80.38;101394.81;5083422;58;21443;-89
2021/09/29 03:35:39;;;;;;;10.27;7.57;;;;;;;11.26;80.29;101389.96;5083468;58;21207;-90
2021/09/29 03:40:45;;;;;;;9.47;7.20;;;;;;;11.33;80.80;101392.19;5084216;58;21244;-87
2021/09/29 03:45:53;;;;;;;18.57;8.27;;;;;;;11.24;80.55;101388.36;5068511;58;21463;-91
2021/09/29 03:50:58;;;;;;;18.27;7.63;;;;;;;11.16;81.12;101384.03;5038610;58;21193;-91
2021/09/29 03:56:06;;;;;;;13.43;8.13;;;;;;;11.11;81.18;101392.78;5080246;58;21525;-92
2021/09/29 04:01:12;;;;;;;14.40;8.50;;;;;;;11.05;81.46;101387.40;5080142;58;21207;-88
2021/09/29 04:06:18;;;;;;;12.77;7.77;;;;;;;10.98;81.83;101392.73;5079844;58;21193;-92
2021/09/29 04:11:24;;;;;;;13.50;6.90;;;;;;;10.93;81.75;101396.14;5080093;58;21135;-90
2021/09/29 04:16:29;;;;;;;11.63;8.10;;;;;;;10.92;81.46;101391.80;5083832;57;21135;-88
2021/09/29 04:21:37;;;;;;;10.50;7.33;;;;;;;10.88;81.73;101397.76;5086160;57;21215;-89
2021/09/29 04:26:44;;;;;;;10.83;7.13;;;;;;;10.82;81.64;101392.03;5084879;58;21164;-86
2021/09/29 04:31:50;;;;;;;16.57;6.93;;;;;;;10.81;81.58;101383.72;5085480;58;21228;-90
2021/09/29 04:36:56;;;;;;;20.93;8.07;;;;;;;10.77;81.66;101385.70;5083918;58;21199;-88
2021/09/29 04:42:02;;;;;;;9.50;7.40;;;;;;;10.73;81.65;101389.48;5084063;58;21128;-89
2021/09/29 04:47:09;;;;;;;10.90;6.83;;;;;;;10.66;81.68;101388.67;5105322;57;21220;-87
2021/09/29 04:52:16;;;;;;;8.30;6.47;;;;;;;10.62;81.65;101393.78;5151119;57;21178;-87
2021/09/29 04:57:22;;;;;;;14.77;8.37;;;;;;;10.62;81.64;101395.95;5149839;57;21232;-88
2021/09/29 05:02:29;;;;;;;19.90;7.57;;;;;;;10.55;81.93;101399.45;5150313;57;21215;-86
2021/09/29 05:07:35;;;;;;;16.60;7.77;;;;;;;10.48;81.99;101398.15;5150163;57;21197;-87
2021/09/29 05:12:41;;;;;;;11.53;7.20;;;;;;;10.46;81.96;101393.42;5149917;57;21663;-89
2021/09/29 05:17:47;;;;;;;13.07;7.60;;;;;;;10.46;82.06;101394.75;5150045;57;21192;-86
2021/09/29 05:22:53;;;;;;;12.43;7.23;;;;;;;10.42;81.96;101396.35;5149573;57;21182;-86
2021/09/29 05:27:59;;;;;;;23.20;7.80;;;;;;;10.47;82.08;101396.92;5150016;57;21186;-86
2021/09/29 05:33:05;;;;;;;15.23;8.27;;;;;;;10.51;82.00;101396.64;5149932;57;21541;-87
2021/09/29 05:38:11;;;;;;;14.97;8.47;;;;;;;10.52;82.09;101391.73;5150193;57;21131;-87
2021/09/29 05:43:16;;;;;;;12.43;7.77;;;;;;;10.57;82.08;101392.73;5149542;57;21195;-87
2021/09/29 05:48:22;;;;;;;18.83;7.73;;;;;;;10.64;81.92;101387.45;5154195;57;21214;-87
2021/09/29 05:53:28;;;;;;;16.53;8.37;;;;;;;10.71;81.84;101390.05;5086684;57;21199;-88
2021/09/29 05:58:34;;;;;;;20.17;9.33;;;;;;;10.78;81.66;101391.38;5083749;58;21255;-85
2021/09/29 06:03:40;;;;;;;14.03;8.33;;;;;;;10.83;81.65;101387.97;5083646;58;21188;-88
2021/09/29 06:08:45;;;;;;;12.70;8.43;;;;;;;10.97;81.40;101388.86;5083544;58;21207;-88
2021/09/29 06:13:51;;;;;;;11.63;8.20;;;;;;;11.09;80.99;101386.73;5083537;58;21207;-86
2021/09/29 06:18:57;;;;;;;18.33;9.10;;;;;;;11.16;80.54;101378.27;5083569;58;21183;-86
2021/09/29 06:24:02;;;;;;;13.80;8.63;;;;;;;11.17;80.22;101378.64;5083591;57;21614;-87
2021/09/29 06:29:08;;;;;;;17.20;8.83;;;;;;;11.27;80.55;101372.28;5083382;58;21574;-87
2021/09/29 06:34:14;;;;;;;13.87;8.43;;;;;;;11.41;80.09;101374.84;5083421;58;21505;-87
2021/09/29 06:39:20;;;;;;;15.73;8.83;;;;;;;11.43;79.56;101378.24;5083535;58;21196;-88
2021/09/29 06:44:28;;;;;;;21.80;8.43;;;;;;;11.41;79.69;101384.59;5083502;58;21558;-87
2021/09/29 06:49:34;;;;;;;11.60;7.80;;;;;;;11.40;79.52;101381.56;5093374;57;21248;-86
2021/09/29 06:54:40;;;;;;;17.50;9.03;;;;;;;11.42;79.59;101392.44;5140616;57;21198;-87
2021/09/29 06:59:45;;;;;;;17.80;8.80;;;;;;;11.63;79.96;101400.23;5141111;57;21496;-87
2021/09/29 07:04:51;;;;;;;14.07;7.93;;;;;;;11.87;79.37;101395.11;5141054;57;21695;-87
2021/09/29 07:09:57;;;;;;;13.93;11.10;;;;;;;12.13;78.86;101389.31;5142201;57;21143;-87
2021/09/29 07:15:04;;;;;;;12.23;7.50;;;;;;;12.29;78.28;101390.41;5141923;57;21139;-88
2021/09/29 07:20:11;;;;;;;15.70;8.83;;;;;;;12.44;77.26;101389.31;5141541;57;21218;-87
2021/09/29 07:25:17;;;;;;;12.93;8.30;;;;;;;12.55;76.89;101387.20;5142206;57;21455;-87
2021/09/29 07:30:22;;;;;;;20.87;10.87;;;;;;;12.55;76.74;101379.24;5142194;57;21135;-87
2021/09/29 07:35:28;;;;;;;17.80;8.43;;;;;;;12.54;76.69;101381.53;5142150;57;21194;-87
2021/09/29 07:40:35;;;;;;;17.00;11.70;;;;;;;12.64;77.36;101374.14;5142069;57;21182;-87
2021/09/29 07:45:41;;;;;;;16.40;9.17;;;;;;;12.86;76.95;101366.77;5142335;57;21678;-89
2021/09/29 07:50:47;;;;;;;15.30;8.93;;;;;;;12.96;76.79;101364.30;5114836;57;21677;-88
2021/09/29 07:55:55;;;;;;;27.27;18.80;;;;;;;13.01;76.53;101363.45;5072767;57;21183;-87
2021/09/29 08:01:00;;;;;;;20.97;9.90;;;;;;;13.13;76.95;101357.73;5072420;57;21181;-89
2021/09/29 08:06:06;;;;;;;16.07;8.47;;;;;;;13.30;76.76;101347.53;5072108;58;21532;-88
2021/09/29 08:11:12;;;;;;;14.90;8.70;;;;;;;13.44;76.32;101348.33;5071952;58;21528;-85
2021/09/29 08:16:17;;;;;;;23.10;9.10;;;;;;;13.59;76.47;101331.20;5070550;58;21212;-87
2021/09/29 08:21:30;;;;;;;16.23;9.30;;;;;;;13.80;76.10;101328.67;5070706;58;21179;-85
2021/09/29 08:26:52;;;;;;;18.77;9.03;;;;;;;13.97;76.16;101322.39;5070971;58;21586;-88
2021/09/29 08:31:53;;;;;;;18.13;8.73;;;;;;;14.24;75.26;101311.36;5069862;58;21216;-87
2021/09/29 08:37:01;;;;;;;16.67;9.23;;;;;;;14.49;75.44;101308.09;5070870;58;21219;-79
2021/09/29 08:47:29;;;;;;;12.00;8.23;;;;;;;14.93;73.01;101287.96;5067718;58;21291;-85
2021/09/29 08:52:52;;;;;;;17.53;8.80;;;;;;;15.03;73.37;101277.37;5139829;57;21201;-85
2021/09/29 08:58:05;;;;;;;14.43;8.80;;;;;;;15.24;70.66;101282.22;5159579;57;21198;-85
2021/09/29 09:19:13;;;;;;;9.67;6.70;;;;;;;15.86;65.47;101254.64;5115543;57;21206;-85
2021/09/29 09:24:25;;;;;;;9.67;8.37;;;;;;;15.93;65.67;101254.44;5161230;57;21193;-85
2021/09/29 09:29:31;;;;;;;20.23;6.25;;;;;;;16.00;64.00;101236.92;5162888;57;22111;-85
2021/09/29 09:34:40;;;;;;;13.43;4.80;;;;;;;16.00;61.78;101213.40;5167808;57;21205;-85
2021/09/29 09:39:45;;;;;;;9.87;4.50;;;;;;;16.04;59.74;101206.82;5167661;57;21739;-84
2021/09/29 09:44:52;;;;;;;13.60;4.97;;;;;;;16.05;61.09;101207.98;5167634;57;21178;-85
2021/09/29 09:49:58;;;;;;;13.67;4.63;;;;;;;16.06;59.62;101202.16;5165129;56;21114;-84
2021/09/29 09:55:08;;;;;;;6.93;4.90;;;;;;;16.14;59.78;101203.17;5144683;57;21198;-85
2021/09/29 10:00:19;;;;;;;6.67;4.07;;;;;;;16.21;59.19;101205.27;5144737;57;21126;-84
2021/09/29 10:05:27;;;;;;;8.10;4.80;;;;;;;16.31;58.82;101190.13;5144875;57;21161;-85
2021/09/29 10:10:40;;;;;;;7.60;4.30;;;;;;;16.36;59.25;101193.20;5144803;57;22463;-86
2021/09/29 10:26:30;;;;;;;16.47;4.97;;;;;;;16.44;57.28;101168.84;5026409;58;21237;-87
2021/09/29 10:32:03;;;;;;;11.83;4.37;;;;;;;16.41;57.71;101167.78;5065918;58;21177;-84
2021/09/29 10:42:25;;;;;;;15.83;4.47;;;;;;;16.48;58.84;101146.22;5065864;58;21201;-85
2021/09/29 10:47:34;;;;;;;7.13;4.37;;;;;;;16.62;58.31;101143.61;5062669;58;21216;-83
2021/09/29 11:30:20;;;;;;;14.03;5.13;;;;;;;17.40;56.67;101092.11;5145802;57;21251;-84
2021/09/29 12:07:57;;;;;;;8.17;4.83;;;;;;;17.62;55.03;101073.45;5148150;57;21190;-85
2021/09/29 12:08:02;;;;;;;12.27;6.17;;;;;;;17.74;56.76;101077.61;5166714;57;22658;-86
2021/09/29 12:13:07;;;;;;;11.80;6.00;;;;;;;17.82;55.99;101073.20;5166427;57;21765;-85
2021/09/29 12:18:14;;;;;;;11.30;5.93;;;;;;;17.81;55.36;101072.02;5167601;57;21186;-81
2021/09/29 12:23:21;;;;;;;11.47;6.00;;;;;;;17.74;55.96;101061.06;5167582;57;21122;-85
2021/09/29 12:39:01;;;;;;;19.90;6.40;;;;;;;17.78;57.15;101058.44;5154488;57;21312;-86
2021/09/29 12:44:13;;;;;;;13.90;6.60;;;;;;;17.91;57.50;101054.04;5143931;57;22523;-85
2021/09/29 12:49:22;;;;;;;12.13;7.77;;;;;;;17.90;57.02;101064.40;5166095;57;21177;-85
2021/09/29 12:54:24;;;;;;;22.63;7.10;;;;;;;17.87;57.12;101062.05;5165702;57;21197;-88
2021/09/29 12:59:30;;;;;;;14.27;7.07;;;;;;;17.83;57.38;101058.83;5166016;57;21194;-84
2021/09/29 13:04:35;;;;;;;20.07;7.40;;;;;;;17.73;57.69;101062.06;5165544;57;21557;-86
2021/09/29 13:09:41;;;;;;;13.80;7.90;;;;;;;17.64;58.02;101053.62;5165959;57;21265;-87
2021/09/29 13:14:47;;;;;;;16.60;8.77;;;;;;;17.57;58.85;101054.67;5166200;57;21218;-85
2021/09/29 13:19:58;;;;;;;22.50;15.67;;;;;;;17.54;59.08;101048.31;5166574;57;22420;-88
2021/09/29 13:40:52;;;;;;;18.97;8.70;;;;;;;17.29;59.95;101046.34;5153996;57;21447;-86
2021/09/29 13:45:59;;;;;;;14.03;8.10;;;;;;;17.24;60.45;101027.25;5165536;57;21253;-88
2021/09/29 13:51:05;;;;;;;15.17;8.27;;;;;;;17.24;60.99;101024.58;5153612;57;21209;-86
2021/09/29 13:56:14;;;;;;;13.40;7.70;;;;;;;17.22;60.95;101027.40;5156882;57;21466;-85
2021/09/29 14:01:39;;;;;;;12.13;8.60;;;;;;;17.20;60.54;101045.91;5153933;57;21138;-84
2021/09/29 14:33:25;;;;;;;12.83;9.00;;;;;;;17.04;62.12;101009.63;5155118;57;20182;-87
2021/09/29 14:38:29;;;;;;;15.77;7.93;;;;;;;17.02;62.34;101013.78;5155314;57;21619;-84
2021/09/29 14:43:35;;;;;;;13.97;7.10;;;;;;;17.02;62.73;101000.92;5154648;57;21193;-84
2021/09/29 14:48:40;;;;;;;13.83;7.70;;;;;;;17.02;62.55;100996.91;5150975;57;21178;-84
2021/09/29 14:53:49;;;;;;;16.30;8.00;;;;;;;16.96;62.89;100995.66;5140373;57;21297;-85
2021/09/29 14:58:54;;;;;;;14.87;8.47;;;;;;;16.94;63.37;100996.83;5125563;57;21237;-86
2021/09/29 15:04:00;;;;;;;19.77;9.50;;;;;;;16.87;63.15;100993.89;5125448;57;21138;-87
2021/09/29 15:09:08;;;;;;;12.30;8.90;;;;;;;16.84;63.64;100999.52;5129425;57;21547;-85
2021/09/29 15:14:17;;;;;;;18.43;7.53;;;;;;;16.76;63.52;100998.09;5157682;57;21182;-91
2021/09/29 15:19:34;;;;;;;15.63;9.40;;;;;;;16.68;63.88;100988.63;5168695;57;21194;-86
2021/09/29 15:24:56;;;;;;;18.47;10.50;;;;;;;16.65;64.26;100997.77;5167952;57;21125;-88
2021/09/29 15:30:09;;;;;;;17.53;10.97;;;;;;;16.59;64.45;100992.16;5168369;57;22427;-85
2021/09/29 15:51:28;;;;;;;;;;;;;;;16.29;65.70;101008.75;5167719;57;21126;-86
2021/09/29 16:01:52;;;;;;;22.70;11.47;;;;;;;16.21;66.15;101013.11;5151001;57;21447;-86
2021/09/29 16:17:58;;;;;;;21.80;14.73;;;;;;;16.11;66.85;101016.64;5143060;57;21114;-88
2021/09/29 16:38:50;;;;;;;27.77;19.33;;;;;;;15.97;67.86;101010.91;5163222;57;21178;-82
2021/09/29 16:43:55;;;;;;;30.60;18.60;;;;;;;15.99;67.99;101015.12;5162987;57;21611;-85
2021/09/29 16:49:01;;;;;;;32.57;17.43;;;;;;;16.00;68.19;101022.63;5157563;57;21143;-84
2021/09/29 16:54:11;;;;;;;39.10;23.27;;;;;;;16.00;68.39;101023.97;5080137;58;21179;-88
2021/09/29 16:59:30;;;;;;;30.93;18.97;;;;;;;15.95;68.56;101024.38;5020164;57;21454;-85
2021/09/29 17:04:27;;;;;;;55.63;26.40;;;;;;;15.88;68.70;101027.28;5018797;58;21183;-84
2021/09/29 17:09:33;;;;;;;54.47;25.63;;;;;;;15.83;68.90;101030.36;5018895;59;21176;-83
2021/09/29 17:14:40;;;;;;;38.20;21.70;;;;;;;15.79;69.08;101020.95;5018387;59;21172;-84
2021/09/29 17:19:46;;;;;;;35.67;18.30;;;;;;;15.70;69.36;101031.13;5018197;59;21116;-87
2021/09/29 17:24:51;;;;;;;47.50;20.87;;;;;;;15.64;69.69;101028.16;5018163;59;21174;-84
2021/09/29 17:29:59;;;;;;;36.87;19.37;;;;;;;15.61;69.88;101033.28;5018228;59;21207;-85
2021/09/29 17:35:12;;;;;;;38.83;20.97;;;;;;;15.62;70.00;101030.97;5018049;59;21213;-85
2021/09/29 17:56:24;;;;;;;28.70;17.50;;;;;;;15.36;70.90;101039.95;5042964;57;21241;-84
2021/09/29 18:01:30;;;;;;;28.17;16.47;;;;;;;15.28;71.08;101049.59;5141018;57;21225;-87
2021/09/29 18:06:45;;;;;;;30.10;14.07;;;;;;;15.24;71.15;101050.87;5141188;57;21229;-86
2021/09/29 18:11:44;;;;;;;30.13;15.63;;;;;;;15.25;71.30;101054.73;5130247;57;21199;-86
2021/09/29 18:16:50;;;;;;;28.17;16.40;;;;;;;15.27;71.32;101063.93;5144805;57;21195;-87
2021/09/29 18:21:55;;;;;;;28.57;17.53;;;;;;;15.25;71.38;101060.55;5121530;57;21237;-87
2021/09/29 18:27:00;;;;;;;33.10;14.50;;;;;;;15.27;71.50;101061.27;5126801;57;21188;-86
2021/09/29 18:32:07;;;;;;;39.17;23.70;;;;;;;15.23;71.63;101059.84;5094047;57;21181;-83
2021/09/29 18:37:13;;;;;;;39.20;19.63;;;;;;;15.18;71.69;101061.57;5144851;57;21647;-88
2021/09/29 18:42:20;;;;;;;28.47;18.83;;;;;;;15.15;71.80;101063.16;5117594;57;21201;-88
2021/09/29 18:47:26;;;;;;;43.40;21.80;;;;;;;15.08;71.73;101068.70;5129668;57;21257;-86
2021/09/29 18:52:32;;;;;;;46.13;21.77;;;;;;;14.97;72.12;101068.28;5111019;57;21164;-90
2021/09/29 19:08:10;;;;;;;44.50;22.25;;;;;;;14.89;72.11;101063.28;5122528;57;21449;-86
2021/09/29 19:13:14;;;;;;;28.07;17.40;;;;;;;14.87;72.14;101067.41;5130174;57;21579;-87
2021/09/29 19:18:20;;;;;;;33.87;18.87;;;;;;;14.86;72.05;101063.54;5138137;57;21220;-89
2021/09/29 19:23:26;;;;;;;33.87;18.73;;;;;;;14.82;72.02;101064.29;5117398;57;21197;-89
2021/09/29 19:28:35;;;;;;;29.20;18.13;;;;;;;14.81;72.18;101067.11;5106645;57;22113;-90
2021/09/29 19:33:39;;;;;;;40.37;21.03;;;;;;;14.73;72.09;101062.44;5100197;57;21580;-90
2021/09/29 19:38:46;;;;;;;27.60;16.83;;;;;;;14.69;72.17;101062.33;5092965;57;21154;-85
2021/09/29 19:43:52;;;;;;;28.27;17.60;;;;;;;14.66;72.06;101066.12;5107059;57;21129;-87
2021/09/29 20:10:26;;;;;;;35.98;19.30;;;;;;;14.47;72.88;101056.69;5114024;57;21197;-87
2021/09/29 20:15:33;;;;;;;45.47;20.90;;;;;;;14.42;72.96;101058.41;5117816;57;21317;-87
2021/09/29 20:20:42;;;;;;;32.53;19.57;;;;;;;14.46;73.43;101055.00;5109791;57;21603;-90
2021/09/29 20:25:48;;;;;;;29.47;17.70;;;;;;;14.41;73.86;101051.88;5119339;57;21220;-89
2021/09/29 20:30:55;;;;;;;39.33;19.83;;;;;;;14.30;74.49;101055.91;5089931;57;21252;-90
2021/09/29 20:46:35;;;;;;;38.00;21.35;;;;;;;14.13;75.55;101067.97;5073090;58;21196;-91
2021/09/29 20:51:42;;;;;;;40.17;20.77;;;;;;;14.12;75.89;101062.30;5120146;57;21178;-90
2021/09/29 20:56:48;;;;;;;36.37;22.77;;;;;;;14.16;76.48;101053.58;5151031;57;21179;-90
2021/09/29 21:01:54;;;;;;;35.17;21.57;;;;;;;14.18;76.73;101066.27;5163828;57;21134;-88
2021/09/29 21:07:00;;;;;;;29.67;17.97;;;;;;;14.13;77.05;101072.45;5165452;57;21923;-88
2021/09/29 21:12:12;;;;;;;27.20;19.20;;;;;;;13.96;77.59;101080.50;5165438;57;21198;-89
2021/09/29 21:22:41;;;;;;;35.53;23.53;;;;;;;13.73;79.05;101085.91;5165300;57;20181;-91
2021/09/29 21:27:47;;;;;;;38.33;23.60;;;;;;;13.77;79.40;101085.64;5165112;57;21194;-87
2021/09/29 21:32:55;;;;;;;43.07;25.33;;;;;;;13.84;79.48;101081.52;5165170;57;21123;-90
2021/09/29 21:59:37;;;;;;;51.03;31.37;;;;;;;13.93;80.23;101082.08;5080648;58;21276;-90
2021/09/29 22:42:23;;;;;;;43.87;29.40;;;;;;;13.67;82.08;101065.14;5073258;58;21671;-91
2021/09/29 22:58:31;;;;;;;;;;;;;;;13.65;82.61;101065.73;5160274;57;21207;-92
2021/09/29 23:08:09;;;;;;;36.27;24.90;;;;;;;13.48;82.85;101084.86;5156698;57;21261;-89
2021/09/29 23:13:28;;;;;;;46.10;28.13;;;;;;;13.32;84.39;101104.33;5157195;57;21126;-90
2021/09/29 23:34:17;;;;;;;29.93;19.27;;;;;;;12.92;86.43;101107.45;5156621;57;21660;-89
2021/09/29 23:39:23;;;;;;;40.80;26.17;;;;;;;12.89;88.97;101113.48;5156727;57;22526;-91
2021/09/29 23:44:29;;;;;;;41.07;27.50;;;;;;;12.77;89.20;101129.88;5156449;57;21185;-89
2021/09/29 23:49:35;;;;;;;40.67;28.33;;;;;;;12.71;88.53;101131.67;5141185;57;21765;-88
2021/09/29 23:54:41;;;;;;;44.90;27.93;;;;;;;12.72;89.48;101132.52;5073193;58;21808;-89
2021/09/29 23:59:47;;;;;;;38.20;27.43;;;;;;;12.69;90.16;101139.74;5073111;58;21128;-89
